Terminal Aerodrome Forecast
Issued by NWS

Home | Current Version | Previous Version | Text Only | Print | Product List | Glossary On
Versions: 1 2 3 4 5 6 7 8 9 10 11 12 13 14 15 16 17 18 19 20 21
000
FTUS41 KPHI 200209 AAA
TAFMIV
TAF AMD
KMIV 200209Z 2002/2024 18005KT P6SM -DZ OVC005 WS020/20035KT
     FM200400 18005KT 2SM -DZ BR OVC005 WS020/20035KT
     FM200600 20006KT 1/2SM -DZ FG OVC004 WS020/23035KT
     FM201400 23007KT 2SM -DZ BR BKN004
     FM201600 23007KT P6SM BKN006
     FM202000 21007KT P6SM BKN025
     FM202300 19004KT P6SM SCT030=

USA.gov is the U.S. government's official web portal to all federal, state and local government web resources and services.